createdAt,value
2018-07-17T00:00:17.788Z,1004.84
2018-07-17T00:01:17.576Z,1004.85
2018-07-17T00:02:17.570Z,1004.88
2018-07-17T00:03:17.555Z,1004.84
2018-07-17T00:04:17.549Z,1004.87
2018-07-17T00:05:17.539Z,1004.88
2018-07-17T00:06:17.528Z,1004.87
2018-07-17T00:07:17.515Z,1004.9
2018-07-17T00:08:17.505Z,1004.86
2018-07-17T00:09:17.497Z,1004.87
2018-07-17T00:10:17.485Z,1004.84
2018-07-17T00:11:17.474Z,1004.88
2018-07-17T00:12:17.468Z,1004.85
2018-07-17T00:13:17.455Z,1004.82
2018-07-17T00:14:17.450Z,1004.83
2018-07-17T00:15:17.438Z,1004.79
2018-07-17T00:16:17.425Z,1004.79
2018-07-17T00:17:17.414Z,1004.8
2018-07-17T00:18:17.403Z,1004.8
2018-07-17T00:19:17.395Z,1004.79
2018-07-17T00:20:17.385Z,1004.81
2018-07-17T00:21:17.376Z,1004.79
2018-07-17T00:22:17.365Z,1004.82
2018-07-17T00:23:17.356Z,1004.81
2018-07-17T00:24:17.344Z,1004.8
2018-07-17T00:25:17.338Z,1004.81
2018-07-17T00:26:17.324Z,1004.84
2018-07-17T00:27:17.315Z,1004.82
2018-07-17T00:28:17.304Z,1004.85
2018-07-17T00:29:17.293Z,1004.85
2018-07-17T00:30:17.288Z,1004.85
2018-07-17T00:31:17.273Z,1004.87
2018-07-17T00:32:17.262Z,1004.86
2018-07-17T00:33:17.257Z,1004.87
2018-07-17T00:34:17.243Z,1004.87
2018-07-17T00:35:17.234Z,1004.88
2018-07-17T00:36:17.224Z,1004.89
2018-07-17T00:37:17.212Z,1004.87
2018-07-17T00:38:17.206Z,1004.87
2018-07-17T00:39:17.192Z,1004.88
2018-07-17T00:40:17.182Z,1004.84
2018-07-17T00:41:17.171Z,1004.84
2018-07-17T00:42:17.164Z,1004.86
2018-07-17T00:43:17.158Z,1004.85
2018-07-17T00:44:17.143Z,1004.85
2018-07-17T00:45:17.131Z,1004.83
2018-07-17T00:46:17.119Z,1004.82
2018-07-17T00:47:17.111Z,1004.85
2018-07-17T00:48:17.101Z,1004.85
2018-07-17T00:49:17.090Z,1004.83
2018-07-17T00:50:17.078Z,1004.83
2018-07-17T00:51:17.072Z,1004.86
2018-07-17T00:52:17.060Z,1004.84
2018-07-17T00:53:17.047Z,1004.83
2018-07-17T00:54:17.039Z,1004.81
2018-07-17T00:55:17.029Z,1004.8
2018-07-17T00:56:17.019Z,1004.76
2018-07-17T00:57:17.007Z,1004.77
2018-07-17T00:58:16.994Z,1004.73
2018-07-17T00:59:16.984Z,1004.75
2018-07-17T01:00:16.975Z,1004.7
2018-07-17T01:01:16.969Z,1004.75
2018-07-17T01:02:16.954Z,1004.75
2018-07-17T01:03:16.942Z,1004.78
2018-07-17T01:04:16.934Z,1004.73
2018-07-17T01:05:16.922Z,1004.7
2018-07-17T01:06:16.911Z,1004.72
2018-07-17T01:07:16.973Z,1004.71
2018-07-17T01:08:16.890Z,1004.68
2018-07-17T01:09:16.881Z,1004.66
2018-07-17T01:10:16.868Z,1004.66
2018-07-17T01:11:16.861Z,1004.63
2018-07-17T01:12:16.847Z,1004.65
2018-07-17T01:13:16.837Z,1004.64
2018-07-17T01:14:16.825Z,1004.63
2018-07-17T01:15:16.813Z,1004.59
2018-07-17T01:16:16.803Z,1004.59
2018-07-17T01:17:16.793Z,1004.61
2018-07-17T01:18:16.783Z,1004.56
2018-07-17T01:19:16.771Z,1004.56
2018-07-17T01:20:16.759Z,1004.54
2018-07-17T01:21:16.749Z,1004.51
2018-07-17T01:22:16.740Z,1004.54
2018-07-17T01:23:16.732Z,1004.52
2018-07-17T01:24:16.722Z,1004.52
2018-07-17T01:25:16.707Z,1004.51
2018-07-17T01:26:16.695Z,1004.5
2018-07-17T01:27:16.689Z,1004.52
2018-07-17T01:28:16.676Z,1004.52
2018-07-17T01:29:16.666Z,1004.49
2018-07-17T01:30:16.652Z,1004.48
2018-07-17T01:31:16.641Z,1004.48
2018-07-17T01:32:16.632Z,1004.48
2018-07-17T01:33:16.620Z,1004.49
2018-07-17T01:34:16.614Z,1004.48
2018-07-17T01:35:16.597Z,1004.46
2018-07-17T01:36:16.589Z,1004.47
2018-07-17T01:37:16.577Z,1004.47
2018-07-17T01:38:16.568Z,1004.48
2018-07-17T01:39:16.553Z,1004.45
2018-07-17T01:40:16.542Z,1004.5
2018-07-17T01:41:16.536Z,1004.46
2018-07-17T01:42:16.518Z,1004.5
2018-07-17T01:43:16.509Z,1004.48
2018-07-17T01:44:16.502Z,1004.47
2018-07-17T01:45:16.489Z,1004.5
2018-07-17T01:46:16.475Z,1004.43
2018-07-17T01:47:16.464Z,1004.42
2018-07-17T01:48:16.456Z,1004.4
2018-07-17T01:49:16.443Z,1004.39
2018-07-17T01:50:16.430Z,1004.37
2018-07-17T01:51:16.424Z,1004.33
2018-07-17T01:52:16.408Z,1004.31
2018-07-17T01:53:16.397Z,1004.3
2018-07-17T01:54:16.387Z,1004.3
2018-07-17T01:55:16.382Z,1004.33
2018-07-17T01:56:16.366Z,1004.33
2018-07-17T01:57:16.352Z,1004.3
2018-07-17T01:58:16.343Z,1004.31
2018-07-17T01:59:16.329Z,1004.31
2018-07-17T02:00:16.521Z,1004.31
2018-07-17T02:01:16.309Z,1004.33
2018-07-17T02:02:16.298Z,1004.33
2018-07-17T02:03:16.286Z,1004.31
2018-07-17T02:04:16.275Z,1004.35
2018-07-17T02:05:16.264Z,1004.32
2018-07-17T02:06:16.250Z,1004.32
2018-07-17T02:07:16.240Z,1004.34
2018-07-17T02:08:16.232Z,1004.35
2018-07-17T02:09:16.218Z,1004.32
2018-07-17T02:10:16.207Z,1004.32
2018-07-17T02:11:16.196Z,1004.36
2018-07-17T02:12:16.183Z,1004.35
2018-07-17T02:13:16.176Z,1004.32
2018-07-17T02:14:16.161Z,1004.32
2018-07-17T02:15:16.149Z,1004.32
2018-07-17T02:16:16.139Z,1004.32
2018-07-17T02:17:16.128Z,1004.33
2018-07-17T02:18:16.115Z,1004.35
2018-07-17T02:19:16.108Z,1004.33
2018-07-17T02:20:16.101Z,1004.32
2018-07-17T02:21:16.082Z,1004.33
2018-07-17T02:22:16.071Z,1004.36
2018-07-17T02:23:16.059Z,1004.31
2018-07-17T02:24:16.049Z,1004.31
2018-07-17T02:25:16.039Z,1004.36
2018-07-17T02:26:16.026Z,1004.37
2018-07-17T02:27:16.018Z,1004.36
2018-07-17T02:28:16.006Z,1004.35
2018-07-17T02:29:15.991Z,1004.37
2018-07-17T02:30:15.981Z,1004.35
2018-07-17T02:31:15.968Z,1004.38
2018-07-17T02:32:15.962Z,1004.4
2018-07-17T02:33:15.948Z,1004.37
2018-07-17T02:34:15.935Z,1004.36
2018-07-17T02:35:15.924Z,1004.39
2018-07-17T02:36:15.913Z,1004.39
2018-07-17T02:37:15.950Z,1004.37
2018-07-17T02:38:15.890Z,1004.41
2018-07-17T02:39:15.878Z,1004.44
2018-07-17T02:40:15.865Z,1004.43
2018-07-17T02:41:15.854Z,1004.45
2018-07-17T02:42:15.940Z,1004.48
2018-07-17T02:43:15.831Z,1004.45
2018-07-17T02:44:15.821Z,1004.5
2018-07-17T02:45:15.812Z,1004.47
2018-07-17T02:46:15.831Z,1004.5
2018-07-17T02:47:15.785Z,1004.51
2018-07-17T02:48:15.786Z,1004.49
2018-07-17T02:49:15.778Z,1004.49
2018-07-17T02:50:15.767Z,1004.52
2018-07-17T02:51:15.744Z,1004.49
2018-07-17T02:52:15.741Z,1004.5
2018-07-17T02:53:15.716Z,1004.46
2018-07-17T02:54:15.704Z,1004.46
2018-07-17T02:55:15.692Z,1004.47
2018-07-17T02:56:15.682Z,1004.43
2018-07-17T02:57:15.669Z,1004.44
2018-07-17T02:58:15.656Z,1004.44
2018-07-17T02:59:15.646Z,1004.43
2018-07-17T03:00:15.635Z,1004.44
2018-07-17T03:01:15.623Z,1004.42
2018-07-17T03:02:15.613Z,1004.42
2018-07-17T03:03:15.597Z,1004.41
2018-07-17T03:04:15.589Z,1004.43
2018-07-17T03:05:15.576Z,1004.43
2018-07-17T03:06:15.576Z,1004.38
2018-07-17T03:07:15.551Z,1004.38
2018-07-17T03:08:15.541Z,1004.42
2018-07-17T03:09:15.529Z,1004.41
2018-07-17T03:10:15.518Z,1004.42
2018-07-17T03:11:15.507Z,1004.43
2018-07-17T03:12:15.494Z,1004.39
2018-07-17T03:13:15.489Z,1004.43
2018-07-17T03:14:15.472Z,1004.45
2018-07-17T03:15:15.461Z,1004.45
2018-07-17T03:16:15.451Z,1004.48
2018-07-17T03:17:15.437Z,1004.46
2018-07-17T03:18:15.429Z,1004.47
2018-07-17T03:19:15.425Z,1004.42
2018-07-17T03:20:15.403Z,1004.44
2018-07-17T03:21:15.390Z,1004.43
2018-07-17T03:22:15.379Z,1004.41
2018-07-17T03:23:15.368Z,1004.42
2018-07-17T03:24:15.352Z,1004.4
2018-07-17T03:25:15.345Z,1004.43
2018-07-17T03:26:15.331Z,1004.42
2018-07-17T03:27:15.318Z,1004.41
2018-07-17T03:28:15.316Z,1004.41
2018-07-17T03:29:15.297Z,1004.43
2018-07-17T03:30:15.284Z,1004.45
2018-07-17T03:31:15.276Z,1004.47
2018-07-17T03:32:15.262Z,1004.44
2018-07-17T03:33:15.252Z,1004.45
2018-07-17T03:34:15.236Z,1004.46
2018-07-17T03:35:15.227Z,1004.5
2018-07-17T03:36:15.213Z,1004.48
2018-07-17T03:37:15.201Z,1004.49
2018-07-17T03:38:15.190Z,1004.51
2018-07-17T03:39:15.182Z,1004.55
2018-07-17T03:40:15.166Z,1004.5
2018-07-17T03:41:15.156Z,1004.52
2018-07-17T03:42:15.145Z,1004.51
2018-07-17T03:43:15.131Z,1004.5
2018-07-17T03:44:15.120Z,1004.5
2018-07-17T03:45:15.114Z,1004.51
2018-07-17T03:46:15.098Z,1004.55
2018-07-17T03:47:15.089Z,1004.54
2018-07-17T03:48:15.077Z,1004.54
2018-07-17T03:49:15.061Z,1004.53
2018-07-17T03:50:15.052Z,1004.53
2018-07-17T03:51:15.073Z,1004.53
2018-07-17T03:52:15.026Z,1004.49
2018-07-17T03:53:15.017Z,1004.54
2018-07-17T03:54:15.003Z,1004.55
2018-07-17T03:55:14.992Z,1004.52
2018-07-17T03:56:14.978Z,1004.53
2018-07-17T03:57:14.967Z,1004.54
2018-07-17T03:58:14.956Z,1004.56
2018-07-17T03:59:14.945Z,1004.54
2018-07-17T04:00:14.935Z,1004.57
2018-07-17T04:01:14.923Z,1004.52
2018-07-17T04:02:14.909Z,1004.49
2018-07-17T04:03:14.895Z,1004.51
2018-07-17T04:04:14.890Z,1004.43
2018-07-17T04:05:14.875Z,1004.43
2018-07-17T04:06:14.861Z,1004.46
2018-07-17T04:07:14.847Z,1004.46
2018-07-17T04:08:14.838Z,1004.48
2018-07-17T04:09:14.824Z,1004.47
2018-07-17T04:10:14.814Z,1004.49
2018-07-17T04:11:14.802Z,1004.52
2018-07-17T04:12:14.797Z,1004.47
2018-07-17T04:13:14.785Z,1004.49
2018-07-17T04:14:14.768Z,1004.47
2018-07-17T04:15:14.756Z,1004.49
2018-07-17T04:16:14.743Z,1004.47
2018-07-17T04:17:14.732Z,1004.46
2018-07-17T04:18:14.720Z,1004.5
2018-07-17T04:19:14.708Z,1004.5
2018-07-17T04:20:14.696Z,1004.45
2018-07-17T04:21:14.685Z,1004.5
2018-07-17T04:22:14.674Z,1004.5
2018-07-17T04:23:14.663Z,1004.51
2018-07-17T04:24:14.651Z,1004.52
2018-07-17T04:25:14.636Z,1004.53
2018-07-17T04:26:14.624Z,1004.54
2018-07-17T04:27:14.612Z,1004.55
2018-07-17T04:28:14.603Z,1004.58
2018-07-17T04:29:14.589Z,1004.54
2018-07-17T04:30:14.578Z,1004.59
2018-07-17T04:31:14.566Z,1004.59
2018-07-17T04:32:14.557Z,1004.64
2018-07-17T04:33:14.546Z,1004.62
2018-07-17T04:34:14.533Z,1004.65
2018-07-17T04:35:14.520Z,1004.61
2018-07-17T04:36:14.506Z,1004.61
2018-07-17T04:37:14.498Z,1004.64
2018-07-17T04:38:14.536Z,1004.56
2018-07-17T04:39:14.474Z,1004.61
2018-07-17T04:40:14.462Z,1004.61
2018-07-17T04:41:14.451Z,1004.58
2018-07-17T04:42:14.440Z,1004.58
2018-07-17T04:43:14.429Z,1004.6
2018-07-17T04:44:14.462Z,1004.57
2018-07-17T04:45:14.405Z,1004.62
2018-07-17T04:46:14.392Z,1004.61
2018-07-17T04:47:14.379Z,1004.62
2018-07-17T04:48:14.370Z,1004.63
2018-07-17T04:49:14.357Z,1004.61
2018-07-17T04:50:14.347Z,1004.63
2018-07-17T04:51:14.336Z,1004.61
2018-07-17T04:52:14.324Z,1004.62
2018-07-17T04:53:14.317Z,1004.66
2018-07-17T04:54:14.304Z,1004.61
2018-07-17T04:55:14.292Z,1004.64
2018-07-17T04:56:14.279Z,1004.67
2018-07-17T04:57:14.267Z,1004.67
2018-07-17T04:58:14.253Z,1004.7
2018-07-17T04:59:14.244Z,1004.72
2018-07-17T05:00:14.237Z,1004.72
2018-07-17T05:01:14.223Z,1004.72
2018-07-17T05:02:14.215Z,1004.77
2018-07-17T05:03:14.199Z,1004.75
2018-07-17T05:04:14.188Z,1004.74
2018-07-17T05:05:14.175Z,1004.74
2018-07-17T05:06:14.165Z,1004.72
2018-07-17T05:07:14.154Z,1004.74
2018-07-17T05:08:14.142Z,1004.76
2018-07-17T05:09:14.134Z,1004.74
2018-07-17T05:10:14.127Z,1004.75
2018-07-17T05:11:14.111Z,1004.81
2018-07-17T05:12:14.100Z,1004.82
2018-07-17T05:13:14.087Z,1004.8
2018-07-17T05:14:14.077Z,1004.8
2018-07-17T05:15:14.067Z,1004.82
2018-07-17T05:16:14.091Z,1004.84
2018-07-17T05:17:14.047Z,1004.89
2018-07-17T05:18:14.031Z,1004.9
2018-07-17T05:19:14.024Z,1004.85
2018-07-17T05:20:14.019Z,1004.92
2018-07-17T05:21:13.998Z,1004.9
2018-07-17T05:22:13.988Z,1004.92
2018-07-17T05:23:13.980Z,1004.92
2018-07-17T05:24:13.965Z,1004.9
2018-07-17T05:25:13.954Z,1004.95
2018-07-17T05:26:13.945Z,1004.94
2018-07-17T05:27:13.933Z,1004.92
2018-07-17T05:28:13.925Z,1004.95
2018-07-17T05:29:13.914Z,1004.95
2018-07-17T05:30:13.905Z,1004.96
2018-07-17T05:31:13.891Z,1004.94
2018-07-17T05:32:13.878Z,1004.98
2018-07-17T05:33:13.873Z,1005.01
2018-07-17T05:34:13.858Z,1005.02
2018-07-17T05:35:13.956Z,1005.05
2018-07-17T05:36:13.839Z,1005.1
2018-07-17T05:37:13.829Z,1005.15
2018-07-17T05:38:13.836Z,1005.17
2018-07-17T05:39:13.808Z,1005.18
2018-07-17T05:40:13.798Z,1005.2
2018-07-17T05:41:13.783Z,1005.25
2018-07-17T05:42:13.773Z,1005.24
2018-07-17T05:43:13.762Z,1005.34
2018-07-17T05:44:13.752Z,1005.24
2018-07-17T05:45:13.741Z,1005.22
2018-07-17T05:46:13.732Z,1005.24
2018-07-17T05:47:13.719Z,1005.23
2018-07-17T05:48:13.711Z,1005.24
2018-07-17T05:49:13.700Z,1005.22
2018-07-17T05:50:13.692Z,1005.24
2018-07-17T05:51:13.680Z,1005.24
2018-07-17T05:52:13.674Z,1005.26
2018-07-17T05:53:13.657Z,1005.25
2018-07-17T05:54:13.648Z,1005.26
2018-07-17T05:55:13.640Z,1005.25
2018-07-17T05:56:13.631Z,1005.29
2018-07-17T05:57:13.619Z,1005.31
2018-07-17T05:58:13.610Z,1005.27
2018-07-17T05:59:13.602Z,1005.24
2018-07-17T06:00:13.590Z,1005.28
2018-07-17T06:01:13.781Z,1005.23
2018-07-17T06:02:13.570Z,1005.19
2018-07-17T06:03:13.620Z,1005.21
2018-07-17T06:04:13.555Z,1005.24
2018-07-17T06:05:13.541Z,1005.23
2018-07-17T06:06:13.532Z,1005.19
2018-07-17T06:07:13.522Z,1005.22
2018-07-17T06:08:13.512Z,1005.18
2018-07-17T06:09:13.501Z,1005.15
2018-07-17T06:10:13.531Z,1005.15
2018-07-17T06:11:13.486Z,1005.17
2018-07-17T06:12:13.474Z,1005.15
2018-07-17T06:13:13.467Z,1005.18
2018-07-17T06:14:13.457Z,1005.15
2018-07-17T06:15:13.447Z,1005.19
2018-07-17T06:16:13.437Z,1005.17
2018-07-17T06:17:13.427Z,1005.21
2018-07-17T06:18:13.436Z,1005.2
2018-07-17T06:19:13.414Z,1005.22
2018-07-17T06:20:13.401Z,1005.21
2018-07-17T06:21:13.391Z,1005.26
2018-07-17T06:22:13.440Z,1005.24
2018-07-17T06:23:13.373Z,1005.25
2018-07-17T06:24:13.369Z,1005.22
2018-07-17T06:25:13.446Z,1005.24
2018-07-17T06:26:13.347Z,1005.25
2018-07-17T06:27:13.340Z,1005.29
2018-07-17T06:28:13.328Z,1005.31
2018-07-17T06:29:13.326Z,1005.33
2018-07-17T06:30:13.311Z,1005.35
2018-07-17T06:31:13.301Z,1005.32
2018-07-17T06:32:13.293Z,1005.34
2018-07-17T06:33:13.285Z,1005.36
2018-07-17T06:34:13.275Z,1005.34
2018-07-17T06:35:13.267Z,1005.33
2018-07-17T06:36:13.261Z,1005.41
2018-07-17T06:37:13.249Z,1005.38
2018-07-17T06:38:13.239Z,1005.43
2018-07-17T06:39:13.239Z,1005.43
2018-07-17T06:40:13.221Z,1005.37
2018-07-17T06:41:13.214Z,1005.36
2018-07-17T06:42:13.207Z,1005.33
2018-07-17T06:43:13.197Z,1005.33
2018-07-17T06:44:13.189Z,1005.4
2018-07-17T06:45:13.179Z,1005.39
2018-07-17T06:46:13.173Z,1005.46
2018-07-17T06:47:13.163Z,1005.41
2018-07-17T06:48:13.154Z,1005.41
2018-07-17T06:49:13.145Z,1005.43
2018-07-17T06:50:13.177Z,1005.44
2018-07-17T06:51:13.127Z,1005.43
2018-07-17T06:52:13.120Z,1005.44
2018-07-17T06:53:13.114Z,1005.44
2018-07-17T06:54:13.105Z,1005.44
2018-07-17T06:55:13.094Z,1005.43
2018-07-17T06:56:13.088Z,1005.46
2018-07-17T06:57:13.078Z,1005.42
2018-07-17T06:58:13.071Z,1005.48
2018-07-17T06:59:13.063Z,1005.46
2018-07-17T07:00:13.053Z,1005.48
2018-07-17T07:01:13.044Z,1005.44
2018-07-17T07:02:13.039Z,1005.43
2018-07-17T07:03:13.026Z,1005.48
2018-07-17T07:04:13.018Z,1005.49
2018-07-17T07:05:13.084Z,1005.53
2018-07-17T07:06:13.001Z,1005.53
2018-07-17T07:07:12.998Z,1005.56
2018-07-17T07:08:12.984Z,1005.56
2018-07-17T07:09:12.977Z,1005.58
2018-07-17T07:10:12.971Z,1005.56
2018-07-17T07:11:13.002Z,1005.62
2018-07-17T07:12:12.954Z,1005.61
2018-07-17T07:13:12.943Z,1005.64
2018-07-17T07:14:12.936Z,1005.65
2018-07-17T07:15:12.928Z,1005.71
2018-07-17T07:16:12.921Z,1005.67
2018-07-17T07:17:12.911Z,1005.65
2018-07-17T07:18:12.907Z,1005.64
2018-07-17T07:19:12.896Z,1005.62
2018-07-17T07:20:12.890Z,1005.58
2018-07-17T07:21:12.889Z,1005.62
2018-07-17T07:22:12.873Z,1005.65
2018-07-17T07:23:12.924Z,1005.7
2018-07-17T07:24:12.857Z,1005.63
2018-07-17T07:25:12.851Z,1005.68
2018-07-17T07:26:12.842Z,1005.69
2018-07-17T07:27:12.834Z,1005.66
2018-07-17T07:28:12.827Z,1005.68
2018-07-17T07:29:12.830Z,1005.68
2018-07-17T07:30:12.812Z,1005.72
2018-07-17T07:31:12.804Z,1005.69
2018-07-17T07:32:12.795Z,1005.65
2018-07-17T07:33:12.788Z,1005.71
2018-07-17T07:34:12.780Z,1005.88
2018-07-17T07:35:12.773Z,1006.01
2018-07-17T07:36:12.767Z,1006
2018-07-17T07:37:12.815Z,1005.99
2018-07-17T07:38:12.752Z,1006.02
2018-07-17T07:39:12.744Z,1006.01
2018-07-17T07:40:12.738Z,1005.95
2018-07-17T07:41:12.735Z,1006.01
2018-07-17T07:42:12.733Z,1006.01
2018-07-17T07:43:12.723Z,1005.98
2018-07-17T07:44:12.719Z,1006.03
2018-07-17T07:45:12.713Z,1006.01
2018-07-17T07:46:12.710Z,1006.02
2018-07-17T07:47:12.704Z,1005.99
2018-07-17T07:48:12.702Z,1005.99
2018-07-17T07:49:12.774Z,1005.99
2018-07-17T07:50:12.694Z,1006
2018-07-17T07:51:12.691Z,1005.97
2018-07-17T07:52:12.689Z,1006.02
2018-07-17T07:53:12.687Z,1005.99
2018-07-17T07:54:12.682Z,1005.97
2018-07-17T07:55:12.680Z,1006.08
2018-07-17T07:56:12.683Z,1006.09
2018-07-17T07:57:12.676Z,1006.04
2018-07-17T07:58:12.682Z,1006.07
2018-07-17T07:59:12.733Z,1006
2018-07-17T08:00:12.672Z,1006.03
2018-07-17T08:01:12.871Z,1006.01
2018-07-17T08:02:12.668Z,1006.04
2018-07-17T08:03:12.668Z,1006.01
2018-07-17T08:04:12.668Z,1005.95
2018-07-17T08:05:12.666Z,1006.03
2018-07-17T08:06:12.666Z,1006.04
2018-07-17T08:07:12.666Z,1006.05
2018-07-17T08:08:12.665Z,1006.06
2018-07-17T08:09:12.667Z,1006.05
2018-07-17T08:10:12.668Z,1006.05
2018-07-17T08:11:12.666Z,1006.08
2018-07-17T08:12:12.772Z,1006.05
2018-07-17T08:13:12.666Z,1006.1
2018-07-17T08:14:12.665Z,1006.11
2018-07-17T08:15:12.667Z,1006.1
2018-07-17T08:16:12.671Z,1006.16
2018-07-17T08:17:12.667Z,1006.08
2018-07-17T08:18:12.670Z,1006.12
2018-07-17T08:19:12.671Z,1006.18
2018-07-17T08:20:12.672Z,1006.15
2018-07-17T08:21:12.680Z,1006.23
2018-07-17T08:22:12.674Z,1006.18
2018-07-17T08:23:12.674Z,1006.17
2018-07-17T08:24:12.714Z,1006.17
2018-07-17T08:25:12.678Z,1006.04
2018-07-17T08:26:12.679Z,1006.1
2018-07-17T08:27:12.681Z,1005.91
2018-07-17T08:28:12.681Z,1005.92
2018-07-17T08:29:12.685Z,1005.93
2018-07-17T08:30:12.682Z,1005.96
2018-07-17T08:31:12.684Z,1005.95
2018-07-17T08:32:12.684Z,1006.03
2018-07-17T08:33:12.684Z,1006.08
2018-07-17T08:34:12.686Z,1005.99
2018-07-17T08:35:12.684Z,1006
2018-07-17T08:36:12.683Z,1006.14
2018-07-17T08:37:12.682Z,1006.26
2018-07-17T08:38:12.682Z,1006.25
2018-07-17T08:39:12.685Z,1006.24
2018-07-17T08:40:12.684Z,1006.12
2018-07-17T08:41:12.687Z,1006.01
2018-07-17T08:42:12.680Z,1005.91
2018-07-17T08:43:12.713Z,1005.95
2018-07-17T08:44:12.678Z,1005.97
2018-07-17T08:45:12.679Z,1005.94
2018-07-17T08:46:12.675Z,1005.9
2018-07-17T08:47:12.676Z,1005.93
2018-07-17T08:48:12.673Z,1005.97
2018-07-17T08:49:12.730Z,1005.97
2018-07-17T08:50:12.672Z,1005.94
2018-07-17T08:51:12.668Z,1005.96
2018-07-17T08:52:12.666Z,1005.94
2018-07-17T08:53:12.665Z,1005.95
2018-07-17T08:54:12.664Z,1005.89
2018-07-17T08:55:12.663Z,1005.91
2018-07-17T08:56:12.658Z,1005.89
2018-07-17T08:57:12.655Z,1005.94
2018-07-17T08:58:12.655Z,1005.96
2018-07-17T08:59:12.653Z,1005.93
2018-07-17T09:00:12.649Z,1005.93
2018-07-17T09:01:12.646Z,1006.05
2018-07-17T09:02:12.648Z,1006.1
2018-07-17T09:03:12.640Z,1006.04
2018-07-17T09:04:12.637Z,1006.3
2018-07-17T09:05:12.636Z,1006.37
2018-07-17T09:06:12.635Z,1006.35
2018-07-17T09:07:12.630Z,1006.28
2018-07-17T09:08:12.630Z,1006.29
2018-07-17T09:09:12.631Z,1006.3
2018-07-17T09:10:12.624Z,1006.28
2018-07-17T09:11:12.623Z,1006.13
2018-07-17T09:12:12.623Z,1006.05
2018-07-17T09:13:12.710Z,1006.1
2018-07-17T09:14:12.621Z,1006.1
2018-07-17T09:15:12.619Z,1006.15
2018-07-17T09:16:12.619Z,1006.15
2018-07-17T09:17:12.620Z,1006.11
2018-07-17T09:18:12.618Z,1006.23
2018-07-17T09:19:12.611Z,1006.13
2018-07-17T09:20:12.611Z,1006.07
2018-07-17T09:21:12.608Z,1006.07
2018-07-17T09:22:12.607Z,1006.13
2018-07-17T09:23:12.605Z,1006.08
2018-07-17T09:24:12.604Z,1006.11
2018-07-17T09:25:12.600Z,1006.08
2018-07-17T09:26:12.599Z,1006.21
2018-07-17T09:27:12.596Z,1006.18
2018-07-17T09:28:12.658Z,1006.11
2018-07-17T09:29:12.594Z,1006.15
2018-07-17T09:30:12.601Z,1006.25
2018-07-17T09:31:12.591Z,1006.15
2018-07-17T09:32:12.586Z,1006.18
2018-07-17T09:33:12.587Z,1006.21
2018-07-17T09:34:12.584Z,1006.23
2018-07-17T09:35:12.582Z,1006.2
2018-07-17T09:36:12.577Z,1006.17
2018-07-17T09:37:12.576Z,1006.18
2018-07-17T09:38:12.574Z,1006.18
2018-07-17T09:39:12.577Z,1006.2
2018-07-17T09:40:12.570Z,1006.17
2018-07-17T09:41:12.569Z,1006.18
2018-07-17T09:42:12.568Z,1006.13
2018-07-17T09:43:12.564Z,1006.14
2018-07-17T09:44:12.625Z,1006.15
2018-07-17T09:45:12.561Z,1006.14
2018-07-17T09:46:12.559Z,1006.17
2018-07-17T09:47:12.556Z,1006.22
2018-07-17T09:48:12.551Z,1006.18
2018-07-17T09:49:12.549Z,1006.2
2018-07-17T09:50:12.547Z,1006.19
2018-07-17T09:51:12.544Z,1006.19
2018-07-17T09:52:12.542Z,1006.22
2018-07-17T09:53:12.547Z,1006.19
2018-07-17T09:54:12.576Z,1006.21
2018-07-17T09:55:12.535Z,1006.19
2018-07-17T09:56:12.533Z,1006.23
2018-07-17T09:57:12.530Z,1006.31
2018-07-17T09:58:12.527Z,1006.21
2018-07-17T09:59:12.524Z,1006.24
2018-07-17T10:00:12.522Z,1006.24
2018-07-17T10:01:12.723Z,1006.17
2018-07-17T10:02:12.514Z,1006.19
2018-07-17T10:03:12.513Z,1006.22
2018-07-17T10:04:12.512Z,1006.18
2018-07-17T10:05:12.508Z,1006.2
2018-07-17T10:06:12.535Z,1006.18
2018-07-17T10:07:12.503Z,1006.2
2018-07-17T10:08:12.499Z,1006.22
2018-07-17T10:09:12.496Z,1006.21
2018-07-17T10:10:12.494Z,1006.21
2018-07-17T10:11:12.492Z,1006.2
2018-07-17T10:12:12.489Z,1006.19
2018-07-17T10:13:12.489Z,1006.21
2018-07-17T10:14:12.485Z,1006.21
2018-07-17T10:15:12.483Z,1006.24
2018-07-17T10:16:12.481Z,1006.26
2018-07-17T10:17:12.479Z,1006.28
2018-07-17T10:18:12.472Z,1006.3
2018-07-17T10:19:12.472Z,1006.22
2018-07-17T10:20:12.487Z,1006.18
2018-07-17T10:21:12.472Z,1006.2
2018-07-17T10:22:12.467Z,1006.16
2018-07-17T10:23:12.461Z,1006.18
2018-07-17T10:24:12.465Z,1006.23
2018-07-17T10:25:12.460Z,1006.29
2018-07-17T10:26:12.472Z,1006.49
2018-07-17T10:27:12.455Z,1006.43
2018-07-17T10:28:12.451Z,1006.42
2018-07-17T10:29:12.456Z,1006.45
2018-07-17T10:30:12.450Z,1006.52
2018-07-17T10:31:12.449Z,1006.57
2018-07-17T10:32:12.534Z,1006.52
2018-07-17T10:33:12.451Z,1006.51
2018-07-17T10:34:12.448Z,1006.6
2018-07-17T10:35:12.448Z,1006.56
2018-07-17T10:36:12.448Z,1006.58
2018-07-17T10:37:12.452Z,1006.52
2018-07-17T10:38:12.451Z,1006.62
2018-07-17T10:39:12.452Z,1006.6
2018-07-17T10:40:12.453Z,1006.57
2018-07-17T10:41:12.456Z,1006.53
2018-07-17T10:42:12.455Z,1006.62
2018-07-17T10:43:12.459Z,1006.62
2018-07-17T10:44:12.465Z,1006.62
2018-07-17T10:45:12.468Z,1006.61
2018-07-17T10:46:12.466Z,1006.58
2018-07-17T10:47:12.473Z,1006.61
2018-07-17T10:48:12.477Z,1006.65
2018-07-17T10:49:12.479Z,1006.61
2018-07-17T10:50:12.487Z,1006.55
2018-07-17T10:51:12.488Z,1006.52
2018-07-17T10:52:12.495Z,1006.53
2018-07-17T10:53:12.495Z,1006.41
2018-07-17T10:54:12.504Z,1006.43
2018-07-17T10:55:12.507Z,1006.41
2018-07-17T10:56:12.510Z,1006.43
2018-07-17T10:57:12.517Z,1006.4
2018-07-17T10:58:12.519Z,1006.43
2018-07-17T10:59:12.527Z,1006.37
2018-07-17T11:00:12.530Z,1006.39
2018-07-17T11:01:12.534Z,1006.33
2018-07-17T11:02:12.541Z,1006.33
2018-07-17T11:03:12.546Z,1006.32
2018-07-17T11:04:12.552Z,1006.3
2018-07-17T11:05:12.560Z,1006.35
2018-07-17T11:06:12.563Z,1006.33
2018-07-17T11:07:12.566Z,1006.35
2018-07-17T11:08:12.572Z,1006.3
2018-07-17T11:09:12.577Z,1006.34
2018-07-17T11:10:12.583Z,1006.41
2018-07-17T11:11:12.587Z,1006.33
2018-07-17T11:12:12.596Z,1006.29
2018-07-17T11:13:12.597Z,1006.38
2018-07-17T11:14:12.603Z,1006.35
2018-07-17T11:15:12.609Z,1006.37
2018-07-17T11:16:12.614Z,1006.36
2018-07-17T11:17:12.617Z,1006.34
2018-07-17T11:18:12.623Z,1006.35
2018-07-17T11:19:12.628Z,1006.29
2018-07-17T11:20:12.633Z,1006.27
2018-07-17T11:21:12.640Z,1006.33
2018-07-17T11:22:12.643Z,1006.27
2018-07-17T11:23:12.649Z,1006.18
2018-07-17T11:24:12.655Z,1006.29
2018-07-17T11:25:12.661Z,1006.26
2018-07-17T11:26:12.664Z,1006.31
2018-07-17T11:27:12.672Z,1006.33
2018-07-17T11:28:12.676Z,1006.31
2018-07-17T11:29:12.682Z,1006.26
2018-07-17T11:30:12.696Z,1006.3
2018-07-17T11:31:12.691Z,1006.26
2018-07-17T11:32:12.697Z,1006.24
2018-07-17T11:33:12.706Z,1006.27
2018-07-17T11:34:12.713Z,1006.29
2018-07-17T11:35:12.710Z,1006.29
2018-07-17T11:36:12.717Z,1006.26
2018-07-17T11:37:12.722Z,1006.3
2018-07-17T11:38:12.727Z,1006.24
2018-07-17T11:39:12.735Z,1006.25
2018-07-17T11:40:12.744Z,1006.3
2018-07-17T11:41:12.744Z,1006.2
2018-07-17T11:42:12.747Z,1006.2
2018-07-17T11:43:12.754Z,1006.19
2018-07-17T11:44:12.758Z,1006.22
2018-07-17T11:45:12.765Z,1006.15
2018-07-17T11:46:12.771Z,1006.23
2018-07-17T11:47:12.776Z,1006.32
2018-07-17T11:48:12.783Z,1006.24
2018-07-17T11:49:12.782Z,1006.17
2018-07-17T11:50:12.789Z,1006.17
2018-07-17T11:51:12.792Z,1006.2
2018-07-17T11:52:12.799Z,1006.23
2018-07-17T11:53:12.871Z,1006.25
2018-07-17T11:54:12.807Z,1006.25
2018-07-17T11:55:12.812Z,1006.23
2018-07-17T11:56:12.818Z,1006.23
2018-07-17T11:57:12.822Z,1006.22
2018-07-17T11:58:12.829Z,1006.21
2018-07-17T11:59:12.917Z,1006.25
2018-07-17T12:00:12.839Z,1006.26
2018-07-17T12:01:13.048Z,1006.34
2018-07-17T12:02:12.851Z,1006.29
2018-07-17T12:03:12.857Z,1006.29
2018-07-17T12:04:12.862Z,1006.27
2018-07-17T12:05:12.919Z,1006.28
2018-07-17T12:06:12.874Z,1006.29
2018-07-17T12:07:12.882Z,1006.23
2018-07-17T12:08:12.940Z,1006.19